Time;durP1;ratioP1;P1;durP2;ratioP2;P2;SDS_P1;SDS_P2;PMS_P1;PMS_P2;Temp;Humidity;BMP_temperature;BMP_pressure;BME280_temperature;BME280_humidity;BME280_pressure;Samples;Min_cycle;Max_cycle;Signal;HPM_P1;HPM_P2
2022/06/07 00:01:36;;;;;;;7.97;4.97;;;;;;;;;;5118029;27;20122;-51
2022/06/07 00:04:02;;;;;;;8.15;4.50;;;;;;;;;;5110137;27;20097;-51
2022/06/07 00:06:27;;;;;;;11.98;6.00;;;;;;;;;;5105962;27;20393;-52
2022/06/07 00:08:53;;;;;;;19.75;4.82;;;;;;;;;;5108455;27;20639;-50
2022/06/07 00:11:19;;;;;;;8.70;4.20;;;;;;;;;;5117073;27;20031;-52
2022/06/07 00:13:45;;;;;;;7.30;5.30;;;;;;;;;;5119057;27;20582;-49
2022/06/07 00:16:11;;;;;;;9.50;5.10;;;;;;;;;;5118530;27;20130;-49
2022/06/07 00:18:36;;;;;;;17.63;4.90;;;;;;;;;;5116336;27;20126;-53
2022/06/07 00:21:02;;;;;;;8.35;5.03;;;;;;;;;;5116065;27;20401;-50
2022/06/07 00:23:28;;;;;;;10.20;4.40;;;;;;;;;;5116639;27;20083;-53
2022/06/07 00:25:53;;;;;;;15.57;5.55;;;;;;;;;;5118630;27;20038;-53
2022/06/07 00:28:20;;;;;;;12.90;3.75;;;;;;;;;;5108197;27;20514;-51
2022/06/07 00:30:45;;;;;;;14.25;3.92;;;;;;;;;;5102078;27;20043;-52
2022/06/07 00:33:11;;;;;;;5.15;4.15;;;;;;;;;;5110877;27;20043;-47
2022/06/07 00:35:36;;;;;;;6.97;4.03;;;;;;;;;;5119691;27;20059;-50
2022/06/07 00:38:01;;;;;;;5.47;4.28;;;;;;;;;;5118705;27;20036;-51
2022/06/07 00:40:27;;;;;;;14.20;5.40;;;;;;;;;;5111320;27;20403;-52
2022/06/07 00:42:52;;;;;;;4.65;4.07;;;;;;;;;;5116313;27;20071;-49
2022/06/07 00:45:20;;;;;;;14.82;3.90;;;;;;;;;;5116905;27;20051;-53
2022/06/07 00:47:47;;;;;;;5.47;3.67;;;;;;;;;;5119819;27;20051;-50
2022/06/07 00:50:12;;;;;;;5.72;3.20;;;;;;;;;;5120370;27;20126;-49
2022/06/07 00:52:38;;;;;;;6.65;4.60;;;;;;;;;;5120012;27;20698;-48
2022/06/07 00:55:04;;;;;;;10.20;4.10;;;;;;;;;;5113296;27;20092;-50
2022/06/07 00:57:30;;;;;;;8.48;3.80;;;;;;;;;;5115588;28;20036;-52
2022/06/07 00:59:55;;;;;;;10.45;4.18;;;;;;;;;;5117097;28;20114;-48
2022/06/07 01:02:21;;;;;;;8.73;4.28;;;;;;;;;;5121555;28;20063;-53
2022/06/07 01:04:47;;;;;;;5.80;3.88;;;;;;;;;;5111736;27;20086;-47
2022/06/07 01:12:40;;;;;;;7.55;5.57;;;;;;;;;;5104946;28;20046;-50
2022/06/07 01:15:06;;;;;;;6.53;4.25;;;;;;;;;;5107628;28;20646;-46
2022/06/07 01:17:32;;;;;;;5.18;4.55;;;;;;;;;;5111943;28;20039;-51
2022/06/07 01:19:57;;;;;;;12.13;3.47;;;;;;;;;;5108059;28;20047;-51
2022/06/07 01:22:23;;;;;;;10.77;4.90;;;;;;;;;;5114235;28;20748;-48
2022/06/07 01:24:48;;;;;;;5.10;3.30;;;;;;;;;;5110944;27;20767;-50
2022/06/07 01:27:14;;;;;;;5.70;4.32;;;;;;;;;;5099370;28;20132;-50
2022/06/07 01:29:39;;;;;;;5.88;4.13;;;;;;;;;;5117105;28;20412;-48
2022/06/07 01:32:05;;;;;;;13.65;5.65;;;;;;;;;;5113836;27;20050;-48
2022/06/07 01:34:31;;;;;;;18.15;5.05;;;;;;;;;;5115162;27;20516;-50
2022/06/07 01:36:57;;;;;;;8.68;4.65;;;;;;;;;;5116620;27;20036;-53
2022/06/07 01:42:07;;;;;;;10.85;4.82;;;;;;;;;;5103914;27;20086;-51
2022/06/07 01:44:37;;;;;;;12.57;5.43;;;;;;;;;;5112746;27;20551;-48
2022/06/07 01:47:03;;;;;;;7.80;4.88;;;;;;;;;;5100080;27;20040;-49
2022/06/07 01:49:28;;;;;;;10.65;4.30;;;;;;;;;;5096366;27;20058;-50
2022/06/07 01:51:54;;;;;;;8.27;3.45;;;;;;;;;;5119765;27;20491;-46
2022/06/07 01:54:20;;;;;;;5.40;2.97;;;;;;;;;;5122849;27;20050;-50
2022/06/07 01:56:46;;;;;;;6.57;4.35;;;;;;;;;;5109768;27;20038;-50
2022/06/07 01:59:11;;;;;;;10.25;4.35;;;;;;;;;;5122430;27;20047;-48
2022/06/07 02:01:37;;;;;;;10.05;3.58;;;;;;;;;;5120141;27;20086;-52
2022/06/07 02:04:03;;;;;;;5.50;4.60;;;;;;;;;;5121434;27;20043;-54
2022/06/07 02:06:29;;;;;;;10.63;4.53;;;;;;;;;;5121513;27;20054;-49
2022/06/07 02:08:54;;;;;;;6.03;4.45;;;;;;;;;;5116698;27;20043;-51
2022/06/07 02:11:21;;;;;;;9.45;4.28;;;;;;;;;;5118266;27;20039;-49
2022/06/07 02:13:46;;;;;;;6.35;4.22;;;;;;;;;;5121583;27;20047;-47
2022/06/07 02:16:12;;;;;;;9.20;3.78;;;;;;;;;;5117770;27;20052;-47
2022/06/07 02:18:38;;;;;;;11.88;5.80;;;;;;;;;;5109164;27;20043;-52
2022/06/07 02:21:03;;;;;;;6.53;4.43;;;;;;;;;;5118493;27;20047;-48
2022/06/07 02:23:29;;;;;;;6.65;4.75;;;;;;;;;;5119357;27;20113;-50
2022/06/07 02:26:05;;;;;;;3.45;3.15;;;;;;;;;;5120615;27;20039;-49
2022/06/07 02:28:34;;;;;;;5.90;4.15;;;;;;;;;;5120655;27;20047;-50
2022/06/07 02:30:59;;;;;;;5.30;3.58;;;;;;;;;;5104045;27;20059;-48
2022/06/07 02:33:26;;;;;;;5.13;3.53;;;;;;;;;;5108523;27;20164;-48
2022/06/07 02:35:51;;;;;;;3.67;2.92;;;;;;;;;;5104720;27;20424;-51
2022/06/07 02:38:17;;;;;;;17.05;4.28;;;;;;;;;;5108682;27;20040;-48
2022/06/07 02:40:43;;;;;;;4.93;3.53;;;;;;;;;;5115364;27;20063;-54
2022/06/07 02:43:08;;;;;;;6.32;4.05;;;;;;;;;;5123271;27;20050;-52
2022/06/07 02:45:34;;;;;;;6.38;3.33;;;;;;;;;;5119953;27;20043;-51
2022/06/07 02:47:59;;;;;;;8.05;4.32;;;;;;;;;;5122230;27;20221;-54
2022/06/07 02:50:24;;;;;;;8.60;4.80;;;;;;;;;;5117552;27;20047;-50
2022/06/07 02:52:50;;;;;;;7.50;4.53;;;;;;;;;;5120389;27;20035;-51
2022/06/07 02:55:15;;;;;;;7.57;4.40;;;;;;;;;;5117808;27;20043;-51
2022/06/07 02:57:41;;;;;;;5.43;4.72;;;;;;;;;;5121054;27;20103;-54
2022/06/07 03:00:08;;;;;;;7.32;5.20;;;;;;;;;;5112086;27;20420;-53
2022/06/07 03:02:33;;;;;;;11.00;4.07;;;;;;;;;;5118168;27;20047;-51
2022/06/07 03:04:58;;;;;;;11.15;4.90;;;;;;;;;;5120385;27;20852;-50
2022/06/07 03:07:24;;;;;;;12.02;3.83;;;;;;;;;;5114481;27;20058;-52
2022/06/07 03:09:49;;;;;;;5.95;3.83;;;;;;;;;;5107965;27;20185;-49
2022/06/07 03:12:14;;;;;;;4.07;3.42;;;;;;;;;;5112007;27;20078;-54
2022/06/07 03:14:40;;;;;;;12.23;3.92;;;;;;;;;;5117985;27;20039;-50
2022/06/07 03:17:06;;;;;;;15.52;4.10;;;;;;;;;;5116934;27;20393;-53
2022/06/07 03:19:31;;;;;;;12.68;3.75;;;;;;;;;;5119664;27;20043;-53
2022/06/07 03:21:57;;;;;;;5.90;3.42;;;;;;;;;;5117781;27;20500;-50
2022/06/07 03:24:22;;;;;;;7.70;2.95;;;;;;;;;;5109181;27;20044;-53
2022/06/07 03:26:47;;;;;;;4.93;3.13;;;;;;;;;;5112839;27;20051;-48
2022/06/07 03:29:13;;;;;;;3.92;3.17;;;;;;;;;;5117316;27;20525;-53
2022/06/07 03:31:38;;;;;;;3.53;3.20;;;;;;;;;;5121278;27;20575;-51
2022/06/07 03:34:03;;;;;;;4.15;2.67;;;;;;;;;;5117852;27;20039;-51
2022/06/07 03:36:29;;;;;;;11.93;3.85;;;;;;;;;;5120715;27;20031;-53
2022/06/07 03:38:57;;;;;;;89.18;14.77;;;;;;;;;;5107937;27;20093;-48
2022/06/07 03:41:23;;;;;;;4.30;3.92;;;;;;;;;;5102225;27;20040;-51
2022/06/07 03:43:49;;;;;;;11.05;4.68;;;;;;;;;;5106874;27;20051;-53
2022/06/07 03:46:24;;;;;;;27.75;5.63;;;;;;;;;;5120014;27;20036;-51
2022/06/07 03:48:49;;;;;;;3.13;2.15;;;;;;;;;;5116112;27;20039;-48
2022/06/07 03:51:16;;;;;;;18.48;3.67;;;;;;;;;;5110466;27;20146;-52
2022/06/07 03:53:43;;;;;;;6.50;3.88;;;;;;;;;;5117758;27;20044;-48
2022/06/07 03:56:08;;;;;;;7.20;3.78;;;;;;;;;;5118280;27;20045;-47
2022/06/07 03:58:34;;;;;;;6.95;3.50;;;;;;;;;;5119081;27;20043;-49
2022/06/07 04:01:01;;;;;;;3.75;2.47;;;;;;;;;;5119822;27;20047;-48
2022/06/07 04:03:26;;;;;;;5.60;3.42;;;;;;;;;;5116461;27;20047;-47
2022/06/07 04:05:52;;;;;;;12.43;5.15;;;;;;;;;;5116374;27;20053;-49
2022/06/07 04:08:18;;;;;;;4.78;3.58;;;;;;;;;;5117076;27;20047;-52
2022/06/07 04:10:44;;;;;;;5.28;4.13;;;;;;;;;;5113461;27;20565;-49
2022/06/07 04:13:10;;;;;;;5.68;3.78;;;;;;;;;;5117849;27;20112;-51
2022/06/07 04:15:35;;;;;;;4.70;3.28;;;;;;;;;;5109564;27;20051;-48
2022/06/07 04:18:00;;;;;;;4.95;2.90;;;;;;;;;;5115031;27;20040;-46
2022/06/07 04:20:26;;;;;;;9.98;3.55;;;;;;;;;;5115493;27;20069;-50
2022/06/07 04:22:52;;;;;;;4.00;3.17;;;;;;;;;;5117947;27;20126;-48
2022/06/07 04:25:17;;;;;;;6.15;4.03;;;;;;;;;;5117771;27;20126;-50
2022/06/07 04:27:43;;;;;;;6.85;3.95;;;;;;;;;;5105585;27;20504;-50
2022/06/07 04:30:08;;;;;;;7.85;3.63;;;;;;;;;;5117599;27;20092;-49
2022/06/07 04:32:34;;;;;;;6.15;3.22;;;;;;;;;;5113409;27;20093;-46
2022/06/07 04:34:59;;;;;;;9.00;3.92;;;;;;;;;;5113453;27;20514;-49
2022/06/07 04:37:24;;;;;;;9.82;2.95;;;;;;;;;;5118054;27;20200;-49
2022/06/07 04:39:50;;;;;;;12.93;2.72;;;;;;;;;;5118896;27;20457;-49
2022/06/07 04:42:15;;;;;;;16.35;3.22;;;;;;;;;;5118095;27;20051;-49
2022/06/07 04:44:41;;;;;;;9.73;3.35;;;;;;;;;;5116345;27;20527;-50
2022/06/07 04:47:06;;;;;;;4.68;3.65;;;;;;;;;;5118117;27;20398;-53
2022/06/07 04:49:32;;;;;;;7.93;3.28;;;;;;;;;;5106934;27;20051;-49
2022/06/07 04:51:57;;;;;;;22.20;5.43;;;;;;;;;;5108691;27;20142;-53
2022/06/07 04:54:22;;;;;;;4.35;3.28;;;;;;;;;;5116286;27;20043;-49
2022/06/07 04:56:47;;;;;;;6.93;3.25;;;;;;;;;;5116269;27;20042;-50
2022/06/07 04:59:13;;;;;;;7.43;3.92;;;;;;;;;;5119692;28;20525;-50
2022/06/07 05:01:41;;;;;;;10.50;3.63;;;;;;;;;;5116970;28;20723;-48
2022/06/07 05:04:07;;;;;;;4.85;3.60;;;;;;;;;;5118726;28;20055;-53
2022/06/07 05:06:34;;;;;;;7.82;3.92;;;;;;;;;;5108325;27;20035;-51
2022/06/07 05:09:01;;;;;;;2.70;2.50;;;;;;;;;;5117298;28;20113;-48
2022/06/07 05:11:27;;;;;;;8.38;3.28;;;;;;;;;;5118353;27;20038;-54
2022/06/07 05:13:56;;;;;;;7.82;3.35;;;;;;;;;;5106626;28;20083;-50
2022/06/07 05:16:21;;;;;;;18.67;4.00;;;;;;;;;;5114516;28;20113;-51
2022/06/07 05:18:47;;;;;;;7.38;5.20;;;;;;;;;;5113067;28;20121;-51
2022/06/07 05:21:13;;;;;;;7.85;4.32;;;;;;;;;;5119269;27;20854;-54
2022/06/07 05:23:38;;;;;;;7.07;4.22;;;;;;;;;;5121077;27;20122;-51
2022/06/07 05:26:03;;;;;;;15.68;3.80;;;;;;;;;;5123557;27;20084;-53
2022/06/07 05:28:29;;;;;;;9.13;6.40;;;;;;;;;;5122762;27;20043;-53
2022/06/07 05:30:54;;;;;;;5.47;4.38;;;;;;;;;;5119646;27;20063;-52
2022/06/07 05:33:19;;;;;;;11.80;5.05;;;;;;;;;;5108609;27;20525;-49
2022/06/07 05:35:45;;;;;;;9.10;3.53;;;;;;;;;;5120131;27;20419;-53
2022/06/07 05:38:11;;;;;;;4.07;3.17;;;;;;;;;;5119938;27;20496;-52
2022/06/07 05:40:36;;;;;;;8.70;4.80;;;;;;;;;;5119090;27;20047;-51
2022/06/07 05:43:03;;;;;;;19.33;7.90;;;;;;;;;;5122761;27;20039;-52
2022/06/07 05:45:31;;;;;;;65.45;13.85;;;;;;;;;;5120760;27;20047;-53
2022/06/07 05:47:56;;;;;;;8.18;4.93;;;;;;;;;;5120276;27;20048;-53
2022/06/07 05:50:21;;;;;;;6.28;4.65;;;;;;;;;;5121031;27;20061;-50
2022/06/07 05:52:47;;;;;;;7.07;6.35;;;;;;;;;;5120127;27;20043;-53
2022/06/07 05:55:12;;;;;;;6.18;3.80;;;;;;;;;;5117275;27;20046;-51
2022/06/07 05:57:37;;;;;;;5.38;3.10;;;;;;;;;;5120056;27;20036;-51
2022/06/07 06:00:04;;;;;;;6.18;3.25;;;;;;;;;;5107097;27;20036;-51
2022/06/07 06:02:29;;;;;;;12.48;4.18;;;;;;;;;;5111228;27;20058;-48
2022/06/07 06:04:54;;;;;;;19.23;4.07;;;;;;;;;;5117370;27;20463;-53
2022/06/07 06:07:20;;;;;;;6.95;3.00;;;;;;;;;;5117098;27;20047;-54
2022/06/07 06:12:29;;;;;;;13.60;4.97;;;;;;;;;;5105224;27;20079;-54
2022/06/07 06:14:55;;;;;;;121.15;21.77;;;;;;;;;;5117114;27;20593;-51
2022/06/07 06:17:20;;;;;;;8.05;5.43;;;;;;;;;;5119767;27;20548;-49
2022/06/07 06:19:46;;;;;;;22.45;11.98;;;;;;;;;;5118533;27;20823;-52
2022/06/07 06:22:11;;;;;;;19.77;8.85;;;;;;;;;;5120135;27;20412;-53
2022/06/07 06:24:37;;;;;;;18.88;7.88;;;;;;;;;;5121124;27;20047;-52
2022/06/07 06:27:02;;;;;;;10.57;7.57;;;;;;;;;;5117230;27;20047;-45
2022/06/07 06:29:28;;;;;;;7.43;5.05;;;;;;;;;;5119807;27;20176;-59
2022/06/07 06:31:53;;;;;;;7.35;4.22;;;;;;;;;;5116750;27;20636;-57
2022/06/07 06:34:19;;;;;;;6.07;4.20;;;;;;;;;;5116780;27;20040;-57
2022/06/07 06:36:45;;;;;;;57.78;47.85;;;;;;;;;;5112459;27;20039;-57
2022/06/07 06:39:10;;;;;;;60.53;50.22;;;;;;;;;;5118874;27;20150;-57
2022/06/07 06:41:37;;;;;;;34.47;21.40;;;;;;;;;;5116563;27;20043;-57
2022/06/07 06:44:02;;;;;;;145.30;128.52;;;;;;;;;;5120247;27;20277;-57
2022/06/07 06:46:29;;;;;;;108.88;95.75;;;;;;;;;;5119404;27;20439;-60
2022/06/07 06:48:55;;;;;;;117.57;104.97;;;;;;;;;;5121045;27;20076;-61
2022/06/07 06:51:23;;;;;;;132.52;118.93;;;;;;;;;;5121644;27;20055;-61
2022/06/07 06:53:49;;;;;;;122.57;109.20;;;;;;;;;;5118673;27;20035;-62
2022/06/07 06:56:17;;;;;;;113.13;100.80;;;;;;;;;;5119826;27;20047;-62
2022/06/07 06:58:42;;;;;;;100.00;90.32;;;;;;;;;;5115040;27;20570;-62
2022/06/07 07:01:10;;;;;;;107.82;96.15;;;;;;;;;;5118441;27;20199;-62
2022/06/07 07:03:36;;;;;;;85.85;76.00;;;;;;;;;;5117660;27;20046;-62
2022/06/07 07:06:02;;;;;;;57.45;51.88;;;;;;;;;;5118248;27;20129;-62
2022/06/07 07:08:27;;;;;;;72.00;64.82;;;;;;;;;;5110895;27;20046;-62
2022/06/07 07:11:11;;;;;;;87.07;77.97;;;;;;;;;;5105968;27;20047;-62
2022/06/07 07:13:37;;;;;;;96.55;86.93;;;;;;;;;;5107020;27;20416;-62
2022/06/07 07:16:05;;;;;;;76.78;69.07;;;;;;;;;;5110113;27;20062;-62
2022/06/07 07:18:30;;;;;;;102.57;92.72;;;;;;;;;;5118472;27;20546;-63
2022/06/07 07:20:56;;;;;;;94.47;84.97;;;;;;;;;;5117522;27;20046;-62
2022/06/07 07:23:22;;;;;;;70.65;61.05;;;;;;;;;;5110609;27;20053;-62
2022/06/07 07:25:48;;;;;;;28.42;25.73;;;;;;;;;;5113070;27;20506;-62
2022/06/07 07:28:13;;;;;;;21.95;19.80;;;;;;;;;;5107234;27;20055;-62
2022/06/07 07:30:38;;;;;;;29.30;22.75;;;;;;;;;;5116085;27;20043;-62
2022/06/07 07:33:04;;;;;;;32.60;24.45;;;;;;;;;;5118637;27;20040;-62
2022/06/07 07:35:30;;;;;;;28.05;24.02;;;;;;;;;;5112253;27;20050;-62
2022/06/07 07:37:57;;;;;;;30.77;26.20;;;;;;;;;;5120487;27;20047;-61
2022/06/07 07:40:22;;;;;;;25.30;20.58;;;;;;;;;;5109472;27;20092;-62
2022/06/07 07:42:48;;;;;;;21.30;18.17;;;;;;;;;;5118013;27;20051;-61
2022/06/07 07:45:13;;;;;;;20.67;16.40;;;;;;;;;;5105443;27;20143;-62
2022/06/07 07:47:39;;;;;;;16.73;14.70;;;;;;;;;;5120450;27;20124;-61
2022/06/07 07:50:04;;;;;;;15.68;12.77;;;;;;;;;;5104994;27;20199;-61
2022/06/07 07:52:30;;;;;;;14.23;9.38;;;;;;;;;;5108985;27;20067;-61
2022/06/07 07:54:55;;;;;;;7.40;5.28;;;;;;;;;;5109693;27;20078;-61
2022/06/07 07:57:21;;;;;;;9.18;4.53;;;;;;;;;;5109106;27;20035;-61
2022/06/07 07:59:46;;;;;;;6.97;4.60;;;;;;;;;;5117107;27;20043;-61
2022/06/07 08:02:20;;;;;;;9.23;5.20;;;;;;;;;;5117668;27;20035;-61
2022/06/07 08:04:45;;;;;;;16.50;6.30;;;;;;;;;;5118550;27;20063;-61
2022/06/07 08:07:10;;;;;;;8.90;7.80;;;;;;;;;;5117147;27;20136;-62
2022/06/07 08:09:36;;;;;;;13.15;8.40;;;;;;;;;;5117802;27;20047;-61
2022/06/07 08:12:05;;;;;;;13.20;11.05;;;;;;;;;;5099741;27;20043;-61
2022/06/07 08:14:38;;;;;;;20.75;12.80;;;;;;;;;;5173242;27;20228;-61
2022/06/07 08:17:04;;;;;;;13.68;11.65;;;;;;;;;;5156119;27;20038;-60
2022/06/07 08:19:30;;;;;;;18.13;12.25;;;;;;;;;;5154932;27;20117;-60
2022/06/07 08:21:56;;;;;;;51.47;15.05;;;;;;;;;;5155643;27;20051;-60
2022/06/07 08:24:21;;;;;;;15.85;13.30;;;;;;;;;;5154406;27;20489;-60
2022/06/07 08:26:48;;;;;;;11.68;8.50;;;;;;;;;;5155702;27;20345;-60
2022/06/07 08:29:14;;;;;;;27.02;6.70;;;;;;;;;;5155429;27;20046;-60
2022/06/07 08:31:40;;;;;;;5.97;4.13;;;;;;;;;;5134281;27;20070;-60
2022/06/07 08:39:35;;;;;;;4.80;3.38;;;;;;;;;;5154435;27;20046;-60
2022/06/07 08:42:03;;;;;;;10.77;5.30;;;;;;;;;;5158071;27;20087;-60
2022/06/07 08:44:40;;;;;;;3.60;1.98;;;;;;;;;;5150297;27;20532;-60
2022/06/07 08:47:11;;;;;;;5.20;4.25;;;;;;;;;;5157067;27;20052;-60
2022/06/07 08:49:36;;;;;;;9.10;3.00;;;;;;;;;;5149376;27;20508;-60
2022/06/07 08:52:08;;;;;;;2.85;1.77;;;;;;;;;;5151246;27;20047;-60
2022/06/07 08:54:35;;;;;;;8.35;4.18;;;;;;;;;;5156317;27;20050;-61
2022/06/07 08:57:16;;;;;;;11.43;1.83;;;;;;;;;;5155433;27;20242;-61
2022/06/07 08:59:46;;;;;;;9.38;3.88;;;;;;;;;;5155058;27;20038;-61
2022/06/07 09:02:14;;;;;;;3.88;2.42;;;;;;;;;;5155170;27;20035;-61
2022/06/07 09:04:40;;;;;;;8.43;3.78;;;;;;;;;;5155740;27;20082;-61
2022/06/07 09:07:11;;;;;;;17.25;4.80;;;;;;;;;;5155471;27;20054;-61
2022/06/07 09:12:23;;;;;;;4.70;3.45;;;;;;;;;;5155791;27;20045;-61
2022/06/07 09:14:48;;;;;;;6.13;3.30;;;;;;;;;;5156513;27;20042;-61
2022/06/07 09:17:19;;;;;;;9.88;4.10;;;;;;;;;;5155964;27;20078;-61
2022/06/07 09:19:45;;;;;;;5.30;4.00;;;;;;;;;;5157055;27;20450;-61
2022/06/07 09:22:16;;;;;;;6.63;4.07;;;;;;;;;;5152998;27;20413;-61
2022/06/07 09:24:48;;;;;;;4.90;2.80;;;;;;;;;;5148653;27;20347;-61
2022/06/07 09:27:18;;;;;;;6.10;3.80;;;;;;;;;;5141351;27;20198;-61
2022/06/07 09:29:59;;;;;;;5.85;3.17;;;;;;;;;;5139853;27;20677;-61
2022/06/07 09:32:26;;;;;;;5.40;3.13;;;;;;;;;;5142513;27;20514;-61
2022/06/07 09:35:03;;;;;;;5.07;2.90;;;;;;;;;;5143206;27;20537;-61
2022/06/07 09:37:37;;;;;;;5.53;3.55;;;;;;;;;;5139636;27;20532;-60
2022/06/07 09:40:29;;;;;;;2.70;1.70;;;;;;;;;;5140884;27;20040;-61
2022/06/07 09:42:58;;;;;;;3.65;2.63;;;;;;;;;;5118583;27;20063;-61
2022/06/07 09:45:27;;;;;;;4.00;2.67;;;;;;;;;;5141046;27;20068;-61
2022/06/07 09:47:53;;;;;;;7.70;3.15;;;;;;;;;;5141518;27;20477;-61
2022/06/07 09:50:18;;;;;;;3.63;2.47;;;;;;;;;;5142208;27;20046;-60
2022/06/07 09:52:45;;;;;;;8.00;2.67;;;;;;;;;;5142266;27;20065;-61
2022/06/07 09:55:10;;;;;;;5.97;2.83;;;;;;;;;;5143112;27;20313;-61
2022/06/07 09:57:36;;;;;;;3.60;2.70;;;;;;;;;;5140245;27;20494;-62
2022/06/07 10:00:04;;;;;;;4.35;2.42;;;;;;;;;;5139929;27;20038;-62
2022/06/07 10:02:38;;;;;;;4.45;2.13;;;;;;;;;;5140620;27;20122;-63
2022/06/07 10:05:17;;;;;;;6.07;2.90;;;;;;;;;;5140915;27;20035;-62
2022/06/07 10:07:55;;;;;;;6.53;3.50;;;;;;;;;;5142994;27;20049;-60
2022/06/07 10:10:39;;;;;;;10.93;2.38;;;;;;;;;;5141083;27;20057;-59
2022/06/07 10:13:24;;;;;;;2.85;2.05;;;;;;;;;;5140304;27;20212;-59
2022/06/07 10:15:59;;;;;;;3.20;2.30;;;;;;;;;;5138796;27;20043;-59
2022/06/07 10:18:30;;;;;;;5.45;2.05;;;;;;;;;;5138327;27;20049;-59
2022/06/07 10:20:56;;;;;;;85.18;8.95;;;;;;;;;;5138760;27;20034;-59
2022/06/07 10:23:37;;;;;;;5.53;2.95;;;;;;;;;;5139381;27;20107;-59
2022/06/07 10:26:02;;;;;;;6.15;2.80;;;;;;;;;;5139298;27;20039;-60
2022/06/07 10:28:32;;;;;;;6.43;3.03;;;;;;;;;;5139305;27;20473;-60
2022/06/07 10:31:15;;;;;;;3.73;1.90;;;;;;;;;;5137225;27;20126;-60
2022/06/07 10:33:47;;;;;;;4.97;2.25;;;;;;;;;;5121017;27;20355;-61
2022/06/07 10:36:24;;;;;;;27.02;6.75;;;;;;;;;;5136269;27;20055;-60
2022/06/07 10:38:52;;;;;;;4.80;1.73;;;;;;;;;;5138696;27;20042;-60
2022/06/07 10:41:18;;;;;;;5.40;2.30;;;;;;;;;;5140330;27;20039;-60
2022/06/07 10:43:58;;;;;;;4.00;2.50;;;;;;;;;;5138308;27;20053;-60
2022/06/07 10:46:24;;;;;;;3.78;1.80;;;;;;;;;;5137065;27;20046;-60
2022/06/07 10:48:58;;;;;;;12.25;2.47;;;;;;;;;;5138324;27;20118;-59
2022/06/07 10:54:15;;;;;;;9.25;2.80;;;;;;;;;;5144224;27;20046;-60
2022/06/07 10:56:45;;;;;;;2.95;2.03;;;;;;;;;;5139137;27;20126;-60
2022/06/07 10:59:19;;;;;;;10.93;3.25;;;;;;;;;;5140589;27;20043;-60
2022/06/07 11:01:48;;;;;;;3.20;2.20;;;;;;;;;;5137450;27;20047;-62
2022/06/07 11:10:12;;;;;;;2.72;1.65;;;;;;;;;;5141676;27;20046;-63
2022/06/07 11:12:47;;;;;;;9.55;3.05;;;;;;;;;;5140261;27;20034;-63
2022/06/07 11:15:23;;;;;;;3.53;2.25;;;;;;;;;;5139137;27;20058;-64
2022/06/07 11:18:04;;;;;;;3.30;1.83;;;;;;;;;;5136700;27;20039;-63
2022/06/07 11:20:31;;;;;;;3.83;2.67;;;;;;;;;;5125792;27;20035;-64
2022/06/07 11:23:15;;;;;;;74.25;15.98;;;;;;;;;;5116592;27;20046;-63
2022/06/07 11:25:43;;;;;;;6.72;3.38;;;;;;;;;;5125317;27;20047;-63
2022/06/07 11:28:08;;;;;;;5.72;1.73;;;;;;;;;;5140055;27;20087;-63
2022/06/07 11:30:33;;;;;;;7.38;2.88;;;;;;;;;;5139714;27;20035;-63
2022/06/07 11:32:59;;;;;;;4.45;2.67;;;;;;;;;;5137819;27;20039;-64
2022/06/07 11:35:45;;;;;;;2.05;1.23;;;;;;;;;;5139872;27;20043;-63
2022/06/07 11:38:16;;;;;;;5.15;1.52;;;;;;;;;;5137021;27;20057;-62
2022/06/07 11:40:42;;;;;;;11.98;4.70;;;;;;;;;;5139001;27;20066;-63
2022/06/07 11:43:27;;;;;;;5.38;2.30;;;;;;;;;;5136726;27;20085;-63
2022/06/07 11:45:53;;;;;;;3.20;2.42;;;;;;;;;;5139849;27;20047;-63
2022/06/07 11:48:22;;;;;;;3.85;2.50;;;;;;;;;;5134710;27;20395;-64
2022/06/07 11:50:58;;;;;;;4.55;2.15;;;;;;;;;;5142206;27;20099;-63
2022/06/07 11:53:26;;;;;;;3.40;2.25;;;;;;;;;;5140560;27;20091;-63
2022/06/07 11:56:14;;;;;;;9.60;2.05;;;;;;;;;;5142404;27;20094;-63
2022/06/07 11:58:54;;;;;;;7.35;3.05;;;;;;;;;;5100385;27;20070;-64
2022/06/07 12:01:38;;;;;;;2.80;1.60;;;;;;;;;;5139650;27;20051;-63
2022/06/07 12:04:22;;;;;;;18.73;3.08;;;;;;;;;;5138469;27;20183;-64
2022/06/07 12:06:50;;;;;;;3.03;2.28;;;;;;;;;;5140273;27;20038;-63
2022/06/07 12:09:16;;;;;;;3.75;1.83;;;;;;;;;;5140466;27;20125;-64
2022/06/07 12:11:43;;;;;;;3.55;1.85;;;;;;;;;;5138075;27;20046;-64
2022/06/07 12:14:14;;;;;;;25.80;3.65;;;;;;;;;;5133371;27;20092;-64
2022/06/07 12:16:42;;;;;;;3.33;2.05;;;;;;;;;;5138868;27;20242;-64
2022/06/07 12:19:23;;;;;;;3.70;1.90;;;;;;;;;;5137195;27;20981;-65
2022/06/07 12:21:54;;;;;;;20.25;2.90;;;;;;;;;;5135590;27;20051;-64
2022/06/07 12:24:20;;;;;;;7.65;2.55;;;;;;;;;;5136468;27;20050;-64
2022/06/07 12:26:47;;;;;;;2.13;1.73;;;;;;;;;;5135412;27;20122;-63
2022/06/07 12:29:12;;;;;;;2.47;1.50;;;;;;;;;;5138615;27;20092;-63
2022/06/07 12:31:42;;;;;;;3.10;1.20;;;;;;;;;;5137851;27;20038;-63
2022/06/07 12:34:24;;;;;;;2.90;1.88;;;;;;;;;;5138529;27;20126;-63
2022/06/07 12:37:03;;;;;;;7.55;3.28;;;;;;;;;;5135694;27;20030;-63
2022/06/07 12:39:29;;;;;;;4.43;2.63;;;;;;;;;;5140521;27;20080;-63
2022/06/07 12:41:59;;;;;;;3.55;2.53;;;;;;;;;;5139662;27;20078;-64
2022/06/07 12:44:27;;;;;;;2.78;1.98;;;;;;;;;;5136165;27;20039;-64
2022/06/07 12:46:53;;;;;;;5.95;3.10;;;;;;;;;;5140690;27;20070;-63
2022/06/07 12:49:19;;;;;;;4.15;2.75;;;;;;;;;;5140694;27;20058;-63
2022/06/07 12:51:52;;;;;;;6.30;2.65;;;;;;;;;;5135492;27;20666;-64
2022/06/07 12:54:18;;;;;;;8.07;3.30;;;;;;;;;;5136209;27;20564;-64
2022/06/07 12:56:46;;;;;;;20.95;3.45;;;;;;;;;;5139305;27;20443;-64
2022/06/07 12:59:30;;;;;;;6.70;2.88;;;;;;;;;;5138701;27;20055;-64
2022/06/07 13:01:57;;;;;;;5.28;2.70;;;;;;;;;;5142227;27;20530;-64
2022/06/07 13:04:45;;;;;;;9.88;3.38;;;;;;;;;;5144604;27;20129;-62
2022/06/07 13:07:13;;;;;;;3.85;2.83;;;;;;;;;;5130210;27;20053;-64
2022/06/07 13:09:39;;;;;;;6.78;3.03;;;;;;;;;;5141728;27;20497;-64
2022/06/07 13:12:05;;;;;;;3.03;1.90;;;;;;;;;;5141735;27;20046;-64
2022/06/07 13:14:30;;;;;;;5.32;3.58;;;;;;;;;;5142637;27;20166;-63
2022/06/07 13:17:10;;;;;;;5.25;2.60;;;;;;;;;;5141549;27;20043;-63
2022/06/07 13:19:39;;;;;;;2.90;2.50;;;;;;;;;;5144032;27;20043;-64
2022/06/07 13:22:10;;;;;;;10.23;3.83;;;;;;;;;;5142928;27;20473;-64
2022/06/07 13:24:42;;;;;;;3.33;2.47;;;;;;;;;;5138704;27;20138;-64
2022/06/07 13:27:26;;;;;;;4.35;2.50;;;;;;;;;;5141223;27;20051;-63
2022/06/07 13:29:53;;;;;;;4.28;2.88;;;;;;;;;;5141728;27;20171;-64
2022/06/07 13:32:20;;;;;;;13.88;4.25;;;;;;;;;;5140307;27;20066;-64
2022/06/07 13:34:49;;;;;;;7.30;3.85;;;;;;;;;;5142425;27;20062;-64
2022/06/07 13:37:17;;;;;;;4.88;3.05;;;;;;;;;;5141378;27;20147;-64
2022/06/07 13:40:05;;;;;;;3.08;1.95;;;;;;;;;;5140405;27;20035;-63
2022/06/07 13:42:33;;;;;;;6.53;3.03;;;;;;;;;;5142152;27;20043;-64
2022/06/07 13:45:15;;;;;;;3.67;1.65;;;;;;;;;;5140720;27;20416;-64
2022/06/07 13:47:59;;;;;;;9.07;4.82;;;;;;;;;;5141065;27;20073;-64
2022/06/07 13:53:23;;;;;;;5.05;2.72;;;;;;;;;;5139740;27;20398;-64
2022/06/07 13:55:58;;;;;;;5.28;3.70;;;;;;;;;;5139878;27;20043;-63
2022/06/07 13:58:26;;;;;;;3.90;2.72;;;;;;;;;;5142867;27;20051;-64
2022/06/07 14:00:56;;;;;;;19.58;5.50;;;;;;;;;;5142132;27;20108;-64
2022/06/07 14:03:32;;;;;;;9.18;1.63;;;;;;;;;;5140498;27;20145;-63
2022/06/07 14:05:57;;;;;;;4.32;2.70;;;;;;;;;;5138745;27;20130;-64
2022/06/07 14:08:23;;;;;;;3.90;2.30;;;;;;;;;;5140958;27;20149;-64
2022/06/07 14:10:48;;;;;;;5.57;3.30;;;;;;;;;;5123907;27;20035;-64
2022/06/07 14:13:14;;;;;;;11.00;4.20;;;;;;;;;;5140484;27;20410;-64
2022/06/07 14:15:40;;;;;;;8.35;3.95;;;;;;;;;;5138874;27;20066;-63
2022/06/07 14:18:07;;;;;;;3.90;2.08;;;;;;;;;;5138618;27;20622;-64
2022/06/07 14:20:34;;;;;;;6.93;2.88;;;;;;;;;;5138841;27;20051;-64
2022/06/07 14:23:00;;;;;;;8.35;2.63;;;;;;;;;;5142660;27;20134;-63
2022/06/07 14:25:27;;;;;;;4.80;3.03;;;;;;;;;;5142453;27;20450;-63
2022/06/07 14:27:53;;;;;;;5.28;1.33;;;;;;;;;;5142392;27;20652;-64
2022/06/07 14:30:19;;;;;;;6.65;1.85;;;;;;;;;;5140173;27;20055;-63
2022/06/07 14:32:46;;;;;;;7.07;3.85;;;;;;;;;;5142310;27;20444;-64
2022/06/07 14:35:16;;;;;;;3.90;2.10;;;;;;;;;;5135958;27;20556;-64
2022/06/07 14:37:41;;;;;;;5.13;2.13;;;;;;;;;;5139702;27;20039;-64
2022/06/07 14:40:14;;;;;;;4.20;1.88;;;;;;;;;;5139944;27;20793;-64
2022/06/07 14:42:42;;;;;;;12.88;3.00;;;;;;;;;;5139541;27;20034;-64
2022/06/07 14:45:09;;;;;;;5.70;1.92;;;;;;;;;;5118294;27;20602;-64
2022/06/07 14:47:34;;;;;;;8.05;2.28;;;;;;;;;;5140438;27;20126;-64
2022/06/07 14:50:00;;;;;;;4.93;3.17;;;;;;;;;;5138302;27;20114;-64
2022/06/07 14:52:25;;;;;;;8.35;2.22;;;;;;;;;;5138649;27;20070;-62
2022/06/07 14:54:51;;;;;;;5.20;2.13;;;;;;;;;;5140693;27;20082;-63
2022/06/07 14:57:27;;;;;;;8.02;2.15;;;;;;;;;;5140060;27;20062;-64
2022/06/07 14:59:53;;;;;;;4.25;2.85;;;;;;;;;;5139606;27;20038;-63
2022/06/07 15:02:23;;;;;;;4.63;1.88;;;;;;;;;;5138372;27;20054;-63
2022/06/07 15:04:53;;;;;;;7.93;3.30;;;;;;;;;;5140799;27;20540;-63
2022/06/07 15:07:21;;;;;;;10.82;3.50;;;;;;;;;;5141762;27;20062;-64
2022/06/07 15:09:46;;;;;;;4.75;2.47;;;;;;;;;;5141084;27;20095;-64
2022/06/07 15:12:14;;;;;;;5.43;2.72;;;;;;;;;;5139544;27;20046;-64